createdAt,value
2022-11-19T00:01:27.714Z,22.80
2022-11-19T00:03:56.215Z,21.08
2022-11-19T00:06:27.073Z,19.98
2022-11-19T00:08:55.502Z,19.83
2022-11-19T00:11:45.446Z,18.20
2022-11-19T00:14:15.906Z,19.63
2022-11-19T00:16:45.535Z,17.07
2022-11-19T00:19:13.650Z,17.83
2022-11-19T00:21:40.900Z,16.13
2022-11-19T00:24:09.331Z,16.98
2022-11-19T00:26:36.593Z,18.40
2022-11-19T00:29:04.572Z,17.48
2022-11-19T00:31:32.452Z,20.83
2022-11-19T00:33:59.982Z,21.40
2022-11-19T00:36:27.112Z,21.63
2022-11-19T00:38:55.209Z,16.40
2022-11-19T00:41:23.363Z,19.70
2022-11-19T00:43:51.031Z,17.40
2022-11-19T00:46:26.336Z,18.52
2022-11-19T00:48:56.949Z,21.70
2022-11-19T00:51:28.652Z,23.00
2022-11-19T00:53:56.655Z,23.20
2022-11-19T00:56:27.245Z,23.63
2022-11-19T00:58:55.645Z,19.33
2022-11-19T01:01:25.682Z,19.10
2022-11-19T01:03:54.031Z,20.70
2022-11-19T01:06:24.818Z,17.70
2022-11-19T01:08:53.897Z,19.38
2022-11-19T01:11:25.774Z,19.30
2022-11-19T01:13:54.016Z,19.98
2022-11-19T01:16:29.613Z,18.52
2022-11-19T01:18:58.315Z,16.98
2022-11-19T01:21:32.929Z,17.95
2022-11-19T01:24:02.419Z,17.95
2022-11-19T01:26:30.441Z,20.10
2022-11-19T01:28:58.403Z,19.42
2022-11-19T01:31:29.502Z,21.55
2022-11-19T01:33:57.377Z,23.10
2022-11-19T01:36:28.703Z,15.73
2022-11-19T01:38:57.903Z,21.80
2022-11-19T01:41:32.650Z,18.02
2022-11-19T01:44:05.306Z,21.67
2022-11-19T01:46:36.535Z,21.80
2022-11-19T01:49:20.468Z,21.25
2022-11-19T01:51:58.554Z,23.23
2022-11-19T01:54:39.476Z,23.25
2022-11-19T01:57:14.564Z,23.52
2022-11-19T01:59:45.100Z,20.38
2022-11-19T02:02:12.946Z,21.60
2022-11-19T02:04:41.052Z,22.35
2022-11-19T02:07:09.977Z,23.98
2022-11-19T02:09:39.536Z,22.08
2022-11-19T02:12:33.824Z,22.33
2022-11-19T02:15:30.805Z,23.95
2022-11-19T02:18:34.691Z,21.40
2022-11-19T02:21:21.810Z,19.10
2022-11-19T02:24:18.306Z,24.17
2022-11-19T02:27:15.289Z,23.27
2022-11-19T02:30:00.699Z,20.42
2022-11-19T02:33:00.108Z,18.95
2022-11-19T02:36:23.784Z,19.90
2022-11-19T02:39:17.785Z,20.67
2022-11-19T02:42:10.866Z,22.52
2022-11-19T02:45:00.825Z,23.55
2022-11-19T02:47:30.947Z,20.48
2022-11-19T02:50:09.741Z,25.80
2022-11-19T02:52:39.491Z,24.65
2022-11-19T02:55:07.737Z,22.48
2022-11-19T02:57:36.671Z,28.27
2022-11-19T03:00:25.906Z,21.55
2022-11-19T03:03:40.125Z,25.45
2022-11-19T03:06:20.519Z,28.67
2022-11-19T03:08:48.057Z,21.65
2022-11-19T03:11:24.517Z,21.00
2022-11-19T03:14:19.264Z,27.73
2022-11-19T03:17:04.858Z,25.35
2022-11-19T03:19:44.235Z,27.75
2022-11-19T03:22:23.192Z,26.42
2022-11-19T03:25:00.942Z,23.23
2022-11-19T03:27:48.122Z,25.15
2022-11-19T03:30:20.009Z,23.10
2022-11-19T03:33:31.869Z,24.65
2022-11-19T03:36:06.855Z,23.23
2022-11-19T03:38:49.116Z,26.98
2022-11-19T03:41:20.642Z,23.05
2022-11-19T03:43:58.283Z,26.65
2022-11-19T03:46:29.403Z,27.73
2022-11-19T03:49:00.341Z,27.83
2022-11-19T03:51:44.227Z,25.50
2022-11-19T03:54:12.039Z,28.58
2022-11-19T03:56:41.779Z,24.42
2022-11-19T03:59:12.859Z,27.58
2022-11-19T04:01:40.696Z,26.27
2022-11-19T04:04:26.827Z,27.63
2022-11-19T04:06:54.556Z,26.30
2022-11-19T04:09:22.240Z,28.35
2022-11-19T04:14:16.067Z,30.02
2022-11-19T04:16:43.289Z,35.38
2022-11-19T04:19:10.891Z,33.25
2022-11-19T04:21:38.073Z,27.83
2022-11-19T04:24:06.166Z,29.23
2022-11-19T04:26:33.333Z,30.13
2022-11-19T04:29:00.987Z,28.15
2022-11-19T04:31:28.254Z,24.65
2022-11-19T04:33:55.714Z,24.80
2022-11-19T04:36:22.987Z,23.45
2022-11-19T04:38:50.407Z,23.77
2022-11-19T04:41:17.563Z,25.38
2022-11-19T04:43:45.049Z,27.15
2022-11-19T04:46:12.271Z,23.98
2022-11-19T04:48:39.755Z,24.38
2022-11-19T04:51:06.924Z,29.23
2022-11-19T04:53:34.387Z,25.35
2022-11-19T04:56:01.583Z,26.08
2022-11-19T04:58:29.042Z,26.52
2022-11-19T05:00:56.197Z,28.98
2022-11-19T05:03:23.655Z,25.17
2022-11-19T05:05:50.949Z,27.38
2022-11-19T05:08:18.377Z,26.15
2022-11-19T05:10:45.635Z,28.00
2022-11-19T05:13:13.315Z,33.75
2022-11-19T05:15:40.773Z,35.38
2022-11-19T05:18:08.445Z,32.13
2022-11-19T05:20:35.748Z,29.35
2022-11-19T05:23:03.343Z,35.05
2022-11-19T05:25:30.715Z,34.33
2022-11-19T05:27:58.177Z,32.50
2022-11-19T05:30:25.386Z,29.38
2022-11-19T05:32:53.076Z,37.45
2022-11-19T05:35:20.283Z,36.60
2022-11-19T05:37:51.759Z,36.42
2022-11-19T05:40:19.139Z,32.80
2022-11-19T05:42:46.641Z,35.22
2022-11-19T05:45:13.932Z,31.10
2022-11-19T05:47:45.927Z,36.85
2022-11-19T05:50:15.639Z,38.50
2022-11-19T05:52:43.065Z,46.97
2022-11-19T05:55:10.273Z,47.40
2022-11-19T05:57:37.731Z,48.43
2022-11-19T06:00:06.098Z,34.97
2022-11-19T06:02:33.631Z,37.05
2022-11-19T06:05:00.967Z,34.35
2022-11-19T06:07:28.554Z,44.83
2022-11-19T06:09:55.733Z,33.90
2022-11-19T06:12:28.269Z,30.90
2022-11-19T06:15:02.177Z,34.72
2022-11-19T06:17:29.895Z,32.95
2022-11-19T06:19:57.317Z,37.13
2022-11-19T06:22:24.793Z,35.30
2022-11-19T06:24:51.944Z,37.43
2022-11-19T06:27:19.465Z,38.57
2022-11-19T06:29:46.727Z,38.40
2022-11-19T06:32:14.214Z,38.33
2022-11-19T06:34:41.387Z,42.88
2022-11-19T06:37:08.877Z,45.90
2022-11-19T06:39:36.109Z,47.13
2022-11-19T06:42:22.330Z,39.63
2022-11-19T06:44:49.562Z,36.08
2022-11-19T06:47:17.081Z,37.28
2022-11-19T06:49:44.373Z,41.58
2022-11-19T06:52:11.893Z,41.97
2022-11-19T06:54:42.930Z,37.42
2022-11-19T06:57:10.762Z,48.90
2022-11-19T06:59:39.130Z,36.20
2022-11-19T07:02:08.484Z,41.67
2022-11-19T07:04:35.774Z,38.97
2022-11-19T07:07:03.746Z,37.90
2022-11-19T07:09:31.126Z,43.47
2022-11-19T07:11:58.649Z,46.43
2022-11-19T07:14:25.879Z,38.80
2022-11-19T07:16:53.419Z,35.53
2022-11-19T07:19:21.026Z,38.37
2022-11-19T07:21:48.688Z,38.17
2022-11-19T07:24:17.945Z,41.67
2022-11-19T07:26:45.769Z,38.67
2022-11-19T07:29:15.324Z,39.35
2022-11-19T07:31:42.978Z,40.20
2022-11-19T07:34:11.290Z,37.15
2022-11-19T07:36:38.804Z,35.70
2022-11-19T07:39:06.403Z,35.45
2022-11-19T07:41:52.783Z,39.55
2022-11-19T07:44:20.150Z,38.10
2022-11-19T07:46:47.646Z,40.70
2022-11-19T07:49:15.081Z,46.13
2022-11-19T07:51:42.754Z,42.72
2022-11-19T07:54:12.732Z,47.95
2022-11-19T07:56:40.921Z,43.42
2022-11-19T07:59:08.221Z,42.50
2022-11-19T08:01:36.182Z,43.87
2022-11-19T08:04:05.348Z,45.13
2022-11-19T08:06:34.808Z,41.55
2022-11-19T08:09:04.332Z,41.42
2022-11-19T08:11:32.304Z,43.58
2022-11-19T08:14:02.938Z,40.13
2022-11-19T08:16:52.013Z,35.97
2022-11-19T08:19:24.370Z,39.40
2022-11-19T08:21:52.039Z,41.78
2022-11-19T08:24:21.064Z,40.17
2022-11-19T08:26:49.346Z,44.57
2022-11-19T08:29:20.447Z,41.03
2022-11-19T08:31:48.784Z,40.75
2022-11-19T08:34:17.812Z,40.00
2022-11-19T08:36:45.736Z,41.03
2022-11-19T08:39:13.003Z,39.08
2022-11-19T08:41:59.078Z,34.72
2022-11-19T08:44:26.472Z,35.53
2022-11-19T08:46:54.087Z,37.03
2022-11-19T08:49:21.685Z,34.15
2022-11-19T08:51:49.207Z,35.10
2022-11-19T08:54:17.081Z,34.20
2022-11-19T08:56:45.327Z,31.02
2022-11-19T08:59:12.671Z,29.48
2022-11-19T09:01:40.386Z,28.05
2022-11-19T09:04:07.657Z,26.95
2022-11-19T09:06:35.413Z,33.90
2022-11-19T09:09:04.461Z,30.15
2022-11-19T09:11:32.219Z,31.60
2022-11-19T09:14:00.027Z,30.73
2022-11-19T09:16:27.989Z,32.20
2022-11-19T09:18:55.346Z,27.27
2022-11-19T09:21:23.061Z,22.50
2022-11-19T09:23:50.313Z,25.83
2022-11-19T09:26:19.336Z,24.45
2022-11-19T09:28:47.096Z,30.83
2022-11-19T09:31:18.449Z,25.25
2022-11-19T09:33:49.797Z,24.13
2022-11-19T09:36:19.573Z,24.33
2022-11-19T09:38:48.176Z,25.95
2022-11-19T09:41:21.021Z,26.02
2022-11-19T09:44:13.139Z,31.55
2022-11-19T09:47:00.054Z,26.55
2022-11-19T09:49:51.241Z,28.55
2022-11-19T09:52:25.142Z,28.63
2022-11-19T09:54:56.784Z,27.02
2022-11-19T09:57:50.649Z,26.08
2022-11-19T10:00:23.393Z,28.45
2022-11-19T10:02:51.645Z,33.28
2022-11-19T10:05:30.168Z,23.08
2022-11-19T10:08:28.268Z,24.88
2022-11-19T10:11:27.139Z,22.77
2022-11-19T10:14:44.777Z,26.35
2022-11-19T10:17:59.306Z,24.05
2022-11-19T10:21:11.447Z,22.05
2022-11-19T10:24:18.057Z,22.50
2022-11-19T10:27:09.969Z,26.77
2022-11-19T10:29:40.468Z,27.08
2022-11-19T10:32:41.388Z,27.85
2022-11-19T10:35:18.570Z,26.98
2022-11-19T10:38:01.358Z,26.77
2022-11-19T10:40:40.504Z,25.70
2022-11-19T10:43:46.474Z,21.95
2022-11-19T10:46:19.463Z,22.35
2022-11-19T10:48:51.913Z,24.13
2022-11-19T10:51:24.839Z,25.10
2022-11-19T10:53:55.744Z,26.02
2022-11-19T10:56:54.215Z,28.33
2022-11-19T10:59:27.787Z,24.75
2022-11-19T11:02:09.077Z,22.40
2022-11-19T11:05:11.723Z,23.17
2022-11-19T11:07:55.547Z,27.80
2022-11-19T11:10:39.040Z,23.55
2022-11-19T11:14:15.060Z,23.15
2022-11-19T11:16:48.158Z,24.50
2022-11-19T11:19:20.015Z,26.13
2022-11-19T11:21:54.724Z,16.73
2022-11-19T11:24:31.754Z,18.02
2022-11-19T11:27:19.500Z,25.63
2022-11-19T11:29:46.791Z,27.60
2022-11-19T11:32:33.555Z,28.58
2022-11-19T11:35:05.252Z,30.65
2022-11-19T11:37:35.446Z,27.65
2022-11-19T11:40:02.844Z,29.20
2022-11-19T11:42:31.160Z,34.10
2022-11-19T11:45:01.193Z,26.10
2022-11-19T11:47:39.786Z,22.27
2022-11-19T11:50:23.103Z,21.92
2022-11-19T11:52:54.622Z,19.85
2022-11-19T11:55:24.443Z,23.17
2022-11-19T11:58:23.440Z,21.27
2022-11-19T12:00:56.162Z,25.08
2022-11-19T12:03:23.939Z,21.90
2022-11-19T12:05:58.755Z,23.52
2022-11-19T12:09:08.717Z,21.92
2022-11-19T12:11:55.238Z,23.17
2022-11-19T12:14:39.352Z,21.95
2022-11-19T12:17:19.879Z,22.85
2022-11-19T12:20:19.220Z,24.90
2022-11-19T12:23:32.739Z,26.13
2022-11-19T12:26:37.527Z,20.83
2022-11-19T12:29:54.116Z,22.70
2022-11-19T12:32:45.173Z,19.58
2022-11-19T12:35:44.350Z,20.67
2022-11-19T12:39:03.388Z,19.52
2022-11-19T12:42:03.669Z,17.90
2022-11-19T12:45:11.390Z,23.00
2022-11-19T12:48:08.880Z,22.27
2022-11-19T12:50:42.001Z,21.52
2022-11-19T12:53:50.900Z,24.25
2022-11-19T12:56:39.157Z,24.75
2022-11-19T13:00:11.828Z,29.10
2022-11-19T13:03:04.176Z,26.17
2022-11-19T13:05:55.848Z,29.30
2022-11-19T13:08:48.216Z,29.10
2022-11-19T13:11:43.280Z,26.67
2022-11-19T13:14:31.118Z,27.08
2022-11-19T13:17:01.304Z,24.10
2022-11-19T13:19:38.258Z,24.65
2022-11-19T13:22:22.284Z,26.05
2022-11-19T13:25:00.591Z,26.50
2022-11-19T13:27:31.053Z,27.10
2022-11-19T13:30:14.474Z,21.20
2022-11-19T13:33:23.121Z,21.90
2022-11-19T13:36:03.704Z,19.65
2022-11-19T13:38:55.080Z,25.73
2022-11-19T13:41:33.778Z,26.55
2022-11-19T13:44:19.852Z,24.67
2022-11-19T13:46:58.547Z,26.00
2022-11-19T13:50:05.185Z,23.05
2022-11-19T13:53:02.857Z,27.58
2022-11-19T13:55:35.294Z,29.45
2022-11-19T13:58:39.963Z,36.28
2022-11-19T14:01:43.655Z,35.97
2022-11-19T14:04:59.567Z,39.85
2022-11-19T14:07:51.165Z,37.65
2022-11-19T14:10:45.012Z,40.90
2022-11-19T14:13:35.006Z,34.80
2022-11-19T14:16:38.074Z,30.15
2022-11-19T14:19:32.763Z,29.25
2022-11-19T14:22:40.503Z,29.25
2022-11-19T14:25:28.043Z,28.30
2022-11-19T14:27:55.626Z,32.78
2022-11-19T14:31:04.468Z,29.15
2022-11-19T14:34:04.252Z,30.73
2022-11-19T14:36:47.627Z,32.05
2022-11-19T14:39:31.790Z,43.10
2022-11-19T14:42:22.243Z,44.35
2022-11-19T14:45:03.012Z,43.22
2022-11-19T14:47:36.443Z,32.95
2022-11-19T14:50:31.657Z,37.38
2022-11-19T14:53:02.187Z,41.15
2022-11-19T14:55:34.246Z,38.33
2022-11-19T14:58:24.334Z,33.55
2022-11-19T15:01:08.755Z,36.45
2022-11-19T15:03:37.840Z,35.50
2022-11-19T15:06:08.365Z,29.05
2022-11-19T15:08:54.254Z,35.83
2022-11-19T15:11:21.874Z,41.78
2022-11-19T15:15:03.773Z,40.92
2022-11-19T15:17:33.378Z,35.17
2022-11-19T15:20:20.966Z,35.05
2022-11-19T15:23:06.451Z,29.92
2022-11-19T15:25:51.504Z,27.47
2022-11-19T15:28:41.668Z,32.83
2022-11-19T15:31:25.240Z,32.80
2022-11-19T15:34:21.531Z,48.60
2022-11-19T15:36:56.195Z,37.65
2022-11-19T15:39:44.440Z,49.23
2022-11-19T15:42:20.661Z,50.42
2022-11-19T15:45:01.994Z,41.75
2022-11-19T15:47:44.535Z,53.80
2022-11-19T15:50:21.198Z,44.75
2022-11-19T15:53:13.607Z,37.87
2022-11-19T15:55:52.173Z,39.30
2022-11-19T15:58:26.166Z,35.05
2022-11-19T16:00:55.855Z,37.10
2022-11-19T16:03:23.767Z,40.95
2022-11-19T16:06:16.064Z,40.67
2022-11-19T16:08:52.958Z,32.07
2022-11-19T16:11:43.864Z,31.48
2022-11-19T16:14:46.251Z,29.77
2022-11-19T16:17:39.866Z,33.33
2022-11-19T16:20:17.921Z,33.83
2022-11-19T16:23:21.318Z,35.27
2022-11-19T16:25:49.941Z,28.20
2022-11-19T16:28:34.008Z,30.97
2022-11-19T16:31:05.325Z,32.63
2022-11-19T16:33:34.687Z,27.93
2022-11-19T16:36:20.431Z,34.77
2022-11-19T16:38:53.666Z,37.30
2022-11-19T16:41:43.211Z,39.50
2022-11-19T16:44:18.143Z,34.73
2022-11-19T16:46:46.428Z,36.67
2022-11-19T16:49:57.599Z,36.90
2022-11-19T16:52:38.591Z,36.03
2022-11-19T16:55:18.041Z,39.27
2022-11-19T16:57:56.112Z,38.03
2022-11-19T17:00:34.679Z,41.00
2022-11-19T17:03:34.494Z,39.27
2022-11-19T17:06:04.595Z,42.50
2022-11-19T17:08:38.288Z,46.77
2022-11-19T17:11:43.032Z,48.53
2022-11-19T17:14:20.824Z,48.87
2022-11-19T17:16:52.279Z,46.77
2022-11-19T17:19:36.792Z,49.03
2022-11-19T17:22:17.784Z,50.13
2022-11-19T17:24:46.620Z,45.20
2022-11-19T17:27:29.343Z,45.77
2022-11-19T17:30:19.068Z,44.40
2022-11-19T17:32:57.924Z,45.47
2022-11-19T17:35:47.307Z,38.90
2022-11-19T17:38:27.978Z,39.43
2022-11-19T17:41:05.178Z,36.57
2022-11-19T17:43:58.958Z,37.03
2022-11-19T17:46:29.554Z,36.40
2022-11-19T17:48:57.394Z,40.63
2022-11-19T17:51:26.716Z,34.33
2022-11-19T17:53:56.623Z,34.07
2022-11-19T17:56:30.955Z,30.30
2022-11-19T17:58:59.773Z,33.20
2022-11-19T18:01:27.571Z,37.87
2022-11-19T18:03:55.133Z,32.63
2022-11-19T18:06:22.350Z,33.33
2022-11-19T18:08:49.900Z,38.47
2022-11-19T18:11:26.110Z,38.63
2022-11-19T18:13:57.563Z,35.40
2022-11-19T18:16:28.752Z,37.20
2022-11-19T18:18:56.346Z,43.00
2022-11-19T18:21:24.084Z,40.90
2022-11-19T18:23:52.212Z,38.70
2022-11-19T18:26:22.945Z,40.37
2022-11-19T18:28:50.898Z,45.23
2022-11-19T18:31:26.293Z,40.63
2022-11-19T18:33:56.791Z,41.40
2022-11-19T18:36:25.395Z,38.53
2022-11-19T18:38:54.905Z,48.63
2022-11-19T18:41:22.617Z,42.20
2022-11-19T18:44:08.710Z,47.43
2022-11-19T18:46:35.961Z,55.83
2022-11-19T18:49:04.514Z,52.43
2022-11-19T18:51:32.627Z,48.17
2022-11-19T18:54:00.451Z,46.53
2022-11-19T18:56:27.737Z,54.20
2022-11-19T18:58:57.211Z,48.80
2022-11-19T19:01:27.713Z,47.87
2022-11-19T19:03:55.186Z,47.17
2022-11-19T19:06:23.403Z,48.33
2022-11-19T19:08:51.599Z,54.73
2022-11-19T19:11:37.348Z,54.00
2022-11-19T19:14:05.065Z,52.70
2022-11-19T19:16:32.603Z,51.57
2022-11-19T19:19:02.218Z,53.70
2022-11-19T19:21:30.213Z,53.10
2022-11-19T19:23:57.820Z,57.83
2022-11-19T19:26:25.039Z,50.30
2022-11-19T19:28:54.958Z,58.20
2022-11-19T19:31:24.346Z,55.30
2022-11-19T19:33:52.816Z,49.73
2022-11-19T19:36:21.993Z,49.50
2022-11-19T19:38:49.987Z,55.90
2022-11-19T19:41:26.730Z,58.63
2022-11-19T19:43:59.609Z,56.33
2022-11-19T19:46:27.275Z,51.87
2022-11-19T19:48:56.468Z,48.77
2022-11-19T19:51:27.613Z,44.47
2022-11-19T19:53:56.206Z,46.70
2022-11-19T19:56:27.937Z,45.37
2022-11-19T19:58:57.640Z,42.93
2022-11-19T20:01:29.173Z,46.27
2022-11-19T20:04:11.766Z,42.27
2022-11-19T20:06:45.191Z,44.13
2022-11-19T20:09:13.348Z,62.77
2022-11-19T20:11:40.870Z,54.03
2022-11-19T20:14:09.553Z,51.60
2022-11-19T20:16:40.855Z,61.83
2022-11-19T20:19:14.613Z,53.43
2022-11-19T20:21:42.159Z,48.97
2022-11-19T20:24:13.609Z,55.13
2022-11-19T20:26:42.829Z,56.87
2022-11-19T20:29:14.228Z,60.47
2022-11-19T20:31:47.480Z,64.93
2022-11-19T20:34:17.064Z,60.80
2022-11-19T20:36:45.007Z,56.27
2022-11-19T20:39:13.109Z,66.07
2022-11-19T20:41:59.166Z,61.67
2022-11-19T20:44:26.823Z,63.97
2022-11-19T20:47:02.247Z,61.70
2022-11-19T20:49:36.485Z,67.00
2022-11-19T20:52:03.938Z,60.30
2022-11-19T20:54:32.508Z,79.50
2022-11-19T20:57:00.760Z,74.30
2022-11-19T20:59:28.929Z,102.60
2022-11-19T21:01:57.664Z,90.37
2022-11-19T21:04:28.634Z,73.73
2022-11-19T21:06:56.267Z,63.87
2022-11-19T21:09:24.393Z,65.03
2022-11-19T21:11:52.139Z,68.83
2022-11-19T21:14:20.276Z,64.20
2022-11-19T21:16:47.936Z,61.10
2022-11-19T21:19:16.433Z,67.20
2022-11-19T21:21:45.648Z,70.27
2022-11-19T21:24:13.708Z,59.93
2022-11-19T21:26:41.651Z,60.53
2022-11-19T21:29:09.420Z,68.47
2022-11-19T21:31:46.561Z,69.47
2022-11-19T21:34:20.783Z,65.63
2022-11-19T21:36:49.758Z,72.37
2022-11-19T21:39:20.116Z,69.40
2022-11-19T21:41:48.006Z,67.00
2022-11-19T21:44:21.068Z,68.90
2022-11-19T21:46:49.288Z,62.67
2022-11-19T21:49:16.866Z,65.93
2022-11-19T21:51:44.607Z,67.60
2022-11-19T21:54:12.176Z,71.87
2022-11-19T21:56:39.472Z,77.00
2022-11-19T21:59:07.695Z,73.67
2022-11-19T22:01:35.438Z,70.20
2022-11-19T22:04:03.428Z,61.20
2022-11-19T22:06:32.565Z,66.23
2022-11-19T22:09:00.283Z,60.93
2022-11-19T22:11:30.775Z,66.50
2022-11-19T22:14:06.618Z,65.07
2022-11-19T22:16:40.153Z,67.60
2022-11-19T22:19:10.107Z,78.67
2022-11-19T22:21:37.666Z,76.30
2022-11-19T22:24:06.399Z,87.27
2022-11-19T22:26:33.703Z,76.60
2022-11-19T22:29:01.325Z,86.83
2022-11-19T22:31:28.525Z,91.97
2022-11-19T22:33:56.444Z,80.83
2022-11-19T22:36:23.984Z,89.33
2022-11-19T22:38:52.584Z,81.20
2022-11-19T22:41:22.185Z,80.67
2022-11-19T22:43:50.850Z,82.73
2022-11-19T22:46:19.786Z,72.43
2022-11-19T22:48:47.936Z,83.47
2022-11-19T22:51:20.142Z,76.57
2022-11-19T22:53:52.927Z,74.17
2022-11-19T22:56:24.032Z,92.83
2022-11-19T22:58:52.895Z,84.87
2022-11-19T23:01:24.570Z,90.90
2022-11-19T23:03:53.678Z,85.43
2022-11-19T23:06:22.873Z,77.30
2022-11-19T23:08:51.710Z,75.13
2022-11-19T23:11:40.478Z,90.30
2022-11-19T23:14:11.800Z,84.93
2022-11-19T23:16:40.780Z,87.60
2022-11-19T23:19:10.087Z,84.40
2022-11-19T23:21:37.722Z,90.87
2022-11-19T23:24:06.493Z,84.47
2022-11-19T23:26:34.384Z,80.57
2022-11-19T23:29:02.041Z,78.20
2022-11-19T23:31:33.153Z,82.43
2022-11-19T23:34:00.899Z,74.00
2022-11-19T23:36:35.570Z,85.20
2022-11-19T23:39:05.267Z,87.20
2022-11-19T23:41:34.567Z,89.97
2022-11-19T23:44:02.821Z,91.37
2022-11-19T23:46:33.700Z,87.40
2022-11-19T23:49:03.300Z,91.10
2022-11-19T23:51:34.488Z,86.53
2022-11-19T23:54:03.268Z,84.67
2022-11-19T23:56:35.982Z,84.00
2022-11-19T23:59:05.796Z,95.10
